createdAt,value
2018-03-20T00:01:49.324Z,-0.10
2018-03-20T00:04:16.284Z,-0.20
2018-03-20T00:06:43.279Z,-0.30
2018-03-20T00:09:10.097Z,-0.30
2018-03-20T00:11:37.069Z,-0.40
2018-03-20T00:14:03.926Z,-0.40
2018-03-20T00:16:30.878Z,-0.40
2018-03-20T00:18:57.791Z,-0.50
2018-03-20T00:21:24.702Z,-0.50
2018-03-20T00:23:51.652Z,-0.50
2018-03-20T00:26:18.507Z,-0.50
2018-03-20T00:28:45.375Z,-0.40
2018-03-20T00:31:12.255Z,-0.40
2018-03-20T00:33:39.181Z,-0.40
2018-03-20T00:36:06.033Z,-0.40
2018-03-20T00:38:33.010Z,-0.30
2018-03-20T00:40:59.852Z,-0.30
2018-03-20T00:43:26.693Z,-0.40
2018-03-20T00:45:53.563Z,-0.50
2018-03-20T00:48:20.496Z,-0.60
2018-03-20T00:50:47.900Z,-0.60
2018-03-20T00:53:14.756Z,-0.70
2018-03-20T00:55:41.627Z,-0.60
2018-03-20T00:58:08.495Z,-0.60
2018-03-20T01:00:35.338Z,-0.60
2018-03-20T01:03:02.218Z,-0.70
2018-03-20T01:05:29.132Z,-0.70
2018-03-20T01:07:56.000Z,-0.70
2018-03-20T01:10:22.869Z,-0.70
2018-03-20T01:12:49.712Z,-0.70
2018-03-20T01:15:16.661Z,-0.70
2018-03-20T01:17:43.516Z,-0.60
2018-03-20T01:20:10.486Z,-0.60
2018-03-20T01:22:37.333Z,-0.60
2018-03-20T01:25:04.184Z,-0.50
2018-03-20T01:27:31.072Z,-0.50
2018-03-20T01:29:57.917Z,-0.60
2018-03-20T01:32:24.853Z,-0.50
2018-03-20T01:34:51.723Z,-0.50
2018-03-20T01:37:18.586Z,-0.50
2018-03-20T01:39:45.544Z,-0.50
2018-03-20T01:42:12.541Z,-0.60
2018-03-20T01:44:39.464Z,-0.60
2018-03-20T01:47:06.321Z,-0.60
2018-03-20T01:49:33.272Z,-0.60
2018-03-20T01:52:00.236Z,-0.60
2018-03-20T01:54:27.100Z,-0.50
2018-03-20T01:56:54.052Z,-0.50
2018-03-20T01:59:20.899Z,-0.60
2018-03-20T02:01:47.792Z,-0.60
2018-03-20T02:04:14.714Z,-0.60
2018-03-20T02:06:41.581Z,-0.60
2018-03-20T02:09:08.454Z,-0.60
2018-03-20T02:11:35.387Z,-0.60
2018-03-20T02:14:02.269Z,-0.70
2018-03-20T02:16:29.221Z,-0.70
2018-03-20T02:18:56.175Z,-0.70
2018-03-20T02:21:23.048Z,-0.60
2018-03-20T02:23:49.913Z,-0.70
2018-03-20T02:26:16.845Z,-0.70
2018-03-20T02:28:43.684Z,-0.80
2018-03-20T02:31:10.658Z,-0.80
2018-03-20T02:33:37.502Z,-0.90
2018-03-20T02:36:04.375Z,-1.00
2018-03-20T02:38:31.260Z,-1.00
2018-03-20T02:40:58.111Z,-1.10
2018-03-20T02:43:24.969Z,-1.10
2018-03-20T02:45:51.839Z,-1.20
2018-03-20T02:48:18.772Z,-1.20
2018-03-20T02:50:45.616Z,-1.20
2018-03-20T02:53:12.588Z,-1.30
2018-03-20T02:55:39.434Z,-1.30
2018-03-20T02:58:06.310Z,-1.40
2018-03-20T03:00:33.227Z,-1.40
2018-03-20T03:03:01.340Z,-1.30
2018-03-20T03:05:28.213Z,-1.30
2018-03-20T03:07:55.064Z,-1.30
2018-03-20T03:10:21.949Z,-1.30
2018-03-20T03:12:48.807Z,-1.30
2018-03-20T03:15:15.658Z,-1.30
2018-03-20T03:17:42.564Z,-1.30
2018-03-20T03:20:09.429Z,-1.20
2018-03-20T03:22:36.287Z,-1.10
2018-03-20T03:25:03.177Z,-1.10
2018-03-20T03:27:30.025Z,-1.10
2018-03-20T03:29:56.970Z,-1.10
2018-03-20T03:32:23.920Z,-1.20
2018-03-20T03:34:50.772Z,-1.20
2018-03-20T03:37:17.636Z,-1.20
2018-03-20T03:39:44.480Z,-1.20
2018-03-20T03:42:11.349Z,-1.20
2018-03-20T03:44:38.205Z,-1.20
2018-03-20T03:47:05.088Z,-1.10
2018-03-20T03:49:31.934Z,-1.10
2018-03-20T03:51:58.795Z,-1.10
2018-03-20T03:54:25.646Z,-1.10
2018-03-20T03:56:52.516Z,-1.10
2018-03-20T03:59:19.444Z,-1.10
2018-03-20T04:01:46.300Z,-1.10
2018-03-20T04:04:13.269Z,-1.00
2018-03-20T04:06:40.129Z,-1.00
2018-03-20T04:09:06.976Z,-1.10
2018-03-20T04:11:33.860Z,-1.10
2018-03-20T04:14:00.734Z,-1.10
2018-03-20T04:16:27.661Z,-1.20
2018-03-20T04:18:54.616Z,-1.30
2018-03-20T04:21:21.525Z,-1.40
2018-03-20T04:23:48.320Z,-1.40
2018-03-20T04:26:15.284Z,-1.50
2018-03-20T04:28:42.149Z,-1.50
2018-03-20T04:31:09.095Z,-1.70
2018-03-20T04:33:35.956Z,-1.70
2018-03-20T04:36:02.816Z,-1.70
2018-03-20T04:38:29.656Z,-1.70
2018-03-20T04:40:56.528Z,-1.70
2018-03-20T04:43:23.393Z,-1.80
2018-03-20T04:45:50.263Z,-1.80
2018-03-20T04:48:17.116Z,-1.80
2018-03-20T04:50:43.995Z,-1.90
2018-03-20T04:53:10.916Z,-1.90
2018-03-20T04:55:37.759Z,-1.90
2018-03-20T04:58:04.726Z,-1.90
2018-03-20T05:00:31.613Z,-1.90
2018-03-20T05:02:58.537Z,-2.00
2018-03-20T05:05:25.391Z,-2.00
2018-03-20T05:07:52.267Z,-1.90
2018-03-20T05:10:19.111Z,-1.80
2018-03-20T05:12:45.992Z,-1.70
2018-03-20T05:15:12.832Z,-1.60
2018-03-20T05:17:39.697Z,-1.50
2018-03-20T05:20:06.568Z,-1.60
2018-03-20T05:22:33.436Z,-1.80
2018-03-20T05:25:00.288Z,-1.90
2018-03-20T05:27:27.148Z,-1.90
2018-03-20T05:29:54.072Z,-1.80
2018-03-20T05:32:20.916Z,-1.90
2018-03-20T05:34:47.781Z,-1.70
2018-03-20T05:37:14.652Z,-1.60
2018-03-20T05:39:41.520Z,-1.60
2018-03-20T05:42:08.392Z,-1.60
2018-03-20T05:44:35.331Z,-1.50
2018-03-20T05:47:02.312Z,-1.50
2018-03-20T05:49:29.237Z,-1.60
2018-03-20T05:51:56.089Z,-1.80
2018-03-20T05:54:22.972Z,-1.80
2018-03-20T05:56:49.935Z,-1.90
2018-03-20T05:59:16.780Z,-2.00
2018-03-20T06:01:43.627Z,-1.90
2018-03-20T06:04:10.585Z,-1.90
2018-03-20T06:06:37.444Z,-1.80
2018-03-20T06:09:04.335Z,-1.60
2018-03-20T06:11:31.210Z,-1.30
2018-03-20T06:13:58.077Z,-1.10
2018-03-20T06:16:25.308Z,-0.80
2018-03-20T06:18:52.245Z,-0.70
2018-03-20T06:21:19.112Z,-0.90
2018-03-20T06:23:45.963Z,-1.00
2018-03-20T06:26:12.913Z,-0.80
2018-03-20T06:28:39.811Z,-0.80
2018-03-20T06:31:06.730Z,-0.70
2018-03-20T06:33:35.736Z,-0.60
2018-03-20T06:36:03.017Z,-0.20
2018-03-20T06:38:29.888Z,-0.10
2018-03-20T06:40:57.475Z,0.00
2018-03-20T06:43:24.320Z,0.10
2018-03-20T06:45:51.235Z,0.40
2018-03-20T06:48:18.087Z,0.60
2018-03-20T06:50:45.074Z,0.70
2018-03-20T06:53:11.932Z,0.80
2018-03-20T06:55:38.789Z,1.00
2018-03-20T06:58:05.733Z,1.30
2018-03-20T07:00:32.602Z,1.40
2018-03-20T07:02:59.552Z,1.50
2018-03-20T07:05:26.409Z,1.60
2018-03-20T07:07:53.288Z,1.00
2018-03-20T07:10:20.220Z,0.70
2018-03-20T07:12:47.069Z,0.70
2018-03-20T07:15:14.032Z,0.80
2018-03-20T07:17:40.868Z,0.90
2018-03-20T07:20:07.748Z,1.00
2018-03-20T07:22:34.808Z,1.10
2018-03-20T07:25:01.692Z,1.10
2018-03-20T07:27:28.553Z,1.10
2018-03-20T07:29:55.405Z,1.20
2018-03-20T07:32:22.291Z,1.20
2018-03-20T07:34:49.202Z,1.30
2018-03-20T07:37:16.048Z,1.50
2018-03-20T07:39:43.351Z,1.70
2018-03-20T07:42:10.194Z,1.70
2018-03-20T07:44:37.053Z,1.70
2018-03-20T07:47:03.994Z,1.50
2018-03-20T07:49:31.164Z,1.40
2018-03-20T07:51:58.018Z,1.40
2018-03-20T07:54:25.024Z,1.60
2018-03-20T07:56:51.873Z,1.40
2018-03-20T07:59:18.745Z,1.30
2018-03-20T08:01:45.754Z,1.40
2018-03-20T08:04:12.973Z,1.60
2018-03-20T08:06:39.874Z,1.60
2018-03-20T08:09:07.109Z,1.90
2018-03-20T08:11:34.007Z,1.90
2018-03-20T08:14:00.860Z,2.10
2018-03-20T08:16:27.922Z,2.20
2018-03-20T08:18:55.205Z,1.90
2018-03-20T08:21:22.065Z,1.90
2018-03-20T08:23:48.953Z,1.80
2018-03-20T08:26:15.805Z,1.90
2018-03-20T08:28:42.723Z,1.90
2018-03-20T08:31:09.974Z,2.00
2018-03-20T08:33:36.874Z,2.00
2018-03-20T08:36:03.803Z,2.00
2018-03-20T08:38:30.609Z,2.00
2018-03-20T08:40:57.521Z,2.10
2018-03-20T08:43:24.480Z,2.20
2018-03-20T08:45:51.353Z,2.20
2018-03-20T08:48:18.323Z,2.40
2018-03-20T08:50:45.277Z,2.50
2018-03-20T08:53:12.145Z,2.60
2018-03-20T08:55:39.001Z,2.50
2018-03-20T08:58:05.858Z,1.80
2018-03-20T09:00:32.754Z,1.50
2018-03-20T09:03:00.067Z,1.40
2018-03-20T09:05:26.926Z,1.40
2018-03-20T09:07:53.886Z,1.60
2018-03-20T09:10:20.846Z,1.50
2018-03-20T09:12:47.709Z,1.20
2018-03-20T09:15:14.576Z,1.20
2018-03-20T09:17:41.508Z,1.30
2018-03-20T09:20:08.489Z,1.50
2018-03-20T09:22:35.443Z,1.80
2018-03-20T09:25:02.319Z,1.70
2018-03-20T09:27:29.182Z,1.40
2018-03-20T09:29:56.116Z,1.50
2018-03-20T09:32:22.981Z,1.80
2018-03-20T09:34:49.931Z,1.50
2018-03-20T09:37:16.777Z,1.30
2018-03-20T09:39:43.648Z,1.40
2018-03-20T09:42:10.593Z,1.50
2018-03-20T09:44:37.593Z,1.40
2018-03-20T09:47:04.515Z,1.60
2018-03-20T09:49:31.393Z,1.90
2018-03-20T09:51:58.822Z,2.30
2018-03-20T09:54:26.084Z,2.50
2018-03-20T09:56:52.953Z,2.50
2018-03-20T09:59:19.832Z,2.40
2018-03-20T10:01:46.791Z,2.60
2018-03-20T10:04:13.754Z,2.60
2018-03-20T10:06:40.711Z,2.80
2018-03-20T10:09:07.578Z,3.10
2018-03-20T10:11:34.442Z,3.10
2018-03-20T10:14:01.397Z,3.20
2018-03-20T10:16:28.333Z,3.10
2018-03-20T10:18:55.186Z,3.20
2018-03-20T10:21:22.232Z,2.80
2018-03-20T10:23:49.079Z,2.80
2018-03-20T10:26:15.994Z,3.10
2018-03-20T10:28:42.826Z,3.10
2018-03-20T10:31:09.773Z,3.30
2018-03-20T10:33:36.655Z,3.50
2018-03-20T10:36:03.524Z,3.30
2018-03-20T10:38:30.454Z,3.10
2018-03-20T10:40:57.407Z,3.10
2018-03-20T10:43:24.372Z,3.20
2018-03-20T10:45:51.324Z,3.20
2018-03-20T10:48:18.239Z,3.50
2018-03-20T10:50:45.113Z,3.60
2018-03-20T10:53:12.027Z,4.00
2018-03-20T10:55:38.983Z,4.20
2018-03-20T10:58:06.142Z,4.10
2018-03-20T11:00:33.032Z,3.90
2018-03-20T11:02:59.907Z,3.90
2018-03-20T11:05:27.238Z,3.30
2018-03-20T11:07:54.266Z,3.20
2018-03-20T11:10:21.219Z,2.80
2018-03-20T11:12:48.090Z,2.80
2018-03-20T11:15:15.047Z,2.80
2018-03-20T11:17:42.002Z,2.90
2018-03-20T11:20:09.014Z,2.90
2018-03-20T11:22:35.974Z,2.60
2018-03-20T11:25:02.906Z,2.70
2018-03-20T11:27:29.786Z,3.00
2018-03-20T11:29:56.674Z,3.20
2018-03-20T11:32:24.025Z,3.20
2018-03-20T11:34:51.348Z,3.40
2018-03-20T11:37:18.299Z,3.40
2018-03-20T11:39:45.156Z,3.70
2018-03-20T11:42:12.030Z,4.10
2018-03-20T11:44:38.964Z,4.10
2018-03-20T11:47:05.931Z,4.30
2018-03-20T11:49:32.860Z,4.30
2018-03-20T11:51:59.685Z,4.20
2018-03-20T11:54:26.587Z,4.10
2018-03-20T11:56:53.455Z,4.10
2018-03-20T11:59:20.307Z,4.00
2018-03-20T12:01:47.225Z,4.00
2018-03-20T12:04:14.481Z,3.70
2018-03-20T12:06:41.406Z,3.70
2018-03-20T12:12:02.410Z,3.90
2018-03-20T12:14:29.730Z,3.70
2018-03-20T12:16:56.602Z,3.70
2018-03-20T12:19:23.471Z,3.70
2018-03-20T12:21:50.346Z,4.00
2018-03-20T12:24:17.608Z,4.20
2018-03-20T12:26:44.473Z,4.20
2018-03-20T12:29:11.737Z,4.00
2018-03-20T12:31:38.997Z,3.80
2018-03-20T12:34:05.889Z,3.80
2018-03-20T12:36:33.196Z,3.30
2018-03-20T12:39:00.077Z,3.30
2018-03-20T12:41:26.997Z,3.50
2018-03-20T12:43:53.950Z,3.60
2018-03-20T12:46:20.902Z,3.50
2018-03-20T12:48:47.783Z,3.50
2018-03-20T12:51:14.647Z,3.40
2018-03-20T12:53:41.592Z,3.00
2018-03-20T12:56:08.521Z,3.00
2018-03-20T12:58:35.791Z,3.20
2018-03-20T13:01:02.663Z,3.20
2018-03-20T13:03:29.615Z,3.30
2018-03-20T13:05:56.492Z,3.50
2018-03-20T13:08:23.445Z,3.40
2018-03-20T13:10:50.319Z,3.40
2018-03-20T13:13:17.187Z,3.40
2018-03-20T13:15:44.049Z,3.30
2018-03-20T13:18:10.946Z,3.40
2018-03-20T13:20:37.814Z,3.50
2018-03-20T13:23:04.683Z,3.40
2018-03-20T13:25:31.622Z,3.30
2018-03-20T13:27:58.468Z,3.40
2018-03-20T13:30:25.453Z,3.60
2018-03-20T13:32:52.310Z,3.80
2018-03-20T13:35:19.196Z,3.90
2018-03-20T13:37:46.040Z,4.10
2018-03-20T13:40:12.917Z,4.20
2018-03-20T13:42:39.845Z,4.40
2018-03-20T13:45:07.023Z,4.20
2018-03-20T13:47:33.886Z,4.10
2018-03-20T13:50:00.745Z,4.20
2018-03-20T13:52:27.693Z,4.60
2018-03-20T13:54:54.565Z,4.90
2018-03-20T13:57:21.422Z,5.00
2018-03-20T13:59:48.329Z,5.30
2018-03-20T14:02:15.328Z,5.40
2018-03-20T14:04:42.197Z,5.40
2018-03-20T14:07:09.133Z,5.50
2018-03-20T14:09:36.076Z,5.40
2018-03-20T14:12:03.030Z,5.30
2018-03-20T14:14:29.913Z,5.20
2018-03-20T14:16:56.850Z,5.20
2018-03-20T14:19:23.907Z,5.20
2018-03-20T14:21:50.784Z,5.30
2018-03-20T14:24:17.751Z,5.30
2018-03-20T14:26:44.730Z,5.40
2018-03-20T14:29:11.540Z,5.40
2018-03-20T14:31:38.413Z,5.60
2018-03-20T14:34:05.258Z,5.80
2018-03-20T14:36:32.297Z,6.10
2018-03-20T14:38:59.106Z,6.30
2018-03-20T14:41:25.977Z,6.50
2018-03-20T14:43:52.930Z,6.70
2018-03-20T14:46:19.943Z,6.50
2018-03-20T14:48:46.809Z,6.20
2018-03-20T14:51:13.735Z,6.00
2018-03-20T14:53:40.587Z,6.10
2018-03-20T14:56:07.841Z,6.10
2018-03-20T14:58:34.719Z,6.10
2018-03-20T15:01:01.968Z,6.40
2018-03-20T15:03:28.966Z,6.40
2018-03-20T15:05:55.829Z,6.40
2018-03-20T15:08:22.832Z,6.20
2018-03-20T15:10:49.692Z,6.20
2018-03-20T15:13:16.600Z,6.00
2018-03-20T15:15:43.497Z,6.00
2018-03-20T15:18:10.371Z,6.10
2018-03-20T15:20:37.289Z,6.10
2018-03-20T15:23:04.230Z,6.10
2018-03-20T15:25:31.109Z,6.30
2018-03-20T15:27:57.969Z,6.50
2018-03-20T15:30:24.849Z,6.60
2018-03-20T15:32:51.796Z,6.70
2018-03-20T15:35:18.654Z,6.60
2018-03-20T15:37:45.596Z,6.60
2018-03-20T15:40:12.468Z,6.60
2018-03-20T15:42:39.395Z,6.60
2018-03-20T15:45:06.878Z,6.70
2018-03-20T15:47:33.781Z,6.70
2018-03-20T15:50:00.625Z,6.70
2018-03-20T15:52:27.566Z,6.70
2018-03-20T15:54:54.413Z,6.80
2018-03-20T15:57:21.277Z,6.70
2018-03-20T15:59:48.150Z,6.60
2018-03-20T16:02:15.082Z,6.70
2018-03-20T16:04:41.946Z,6.70
2018-03-20T16:07:08.916Z,6.70
2018-03-20T16:09:35.862Z,6.70
2018-03-20T16:12:02.757Z,6.70
2018-03-20T16:14:29.677Z,6.80
2018-03-20T16:16:56.645Z,6.90
2018-03-20T16:19:23.519Z,7.00
2018-03-20T16:21:50.453Z,7.00
2018-03-20T16:24:17.329Z,6.90
2018-03-20T16:26:44.181Z,6.80
2018-03-20T16:29:11.042Z,6.70
2018-03-20T16:31:37.929Z,6.80
2018-03-20T16:34:04.866Z,6.80
2018-03-20T16:36:31.737Z,6.70
2018-03-20T16:38:58.659Z,6.80
2018-03-20T16:41:25.557Z,7.10
2018-03-20T16:43:52.486Z,7.70
2018-03-20T16:46:19.338Z,8.20
2018-03-20T16:48:46.209Z,8.80
2018-03-20T16:51:13.062Z,9.20
2018-03-20T16:53:40.006Z,9.10
2018-03-20T16:56:06.896Z,8.80
2018-03-20T16:58:33.760Z,8.80
2018-03-20T17:01:00.666Z,9.20
2018-03-20T17:03:27.633Z,9.40
2018-03-20T17:05:54.495Z,9.20
2018-03-20T17:08:21.349Z,9.20
2018-03-20T17:10:48.204Z,8.70
2018-03-20T17:13:15.069Z,8.30
2018-03-20T17:15:42.014Z,8.10
2018-03-20T17:18:08.858Z,7.70
2018-03-20T17:20:35.847Z,7.50
2018-03-20T17:23:02.811Z,7.30
2018-03-20T17:25:29.674Z,7.20
2018-03-20T17:27:56.566Z,7.20
2018-03-20T17:30:23.852Z,7.00
2018-03-20T17:32:50.721Z,7.00
2018-03-20T17:35:17.673Z,7.00
2018-03-20T17:37:44.905Z,6.60
2018-03-20T17:40:12.226Z,6.40
2018-03-20T17:42:39.183Z,6.40
2018-03-20T17:45:06.139Z,6.30
2018-03-20T17:47:33.001Z,6.20
2018-03-20T17:49:59.855Z,6.10
2018-03-20T17:52:26.824Z,6.10
2018-03-20T17:54:53.661Z,6.00
2018-03-20T17:57:20.620Z,5.90
2018-03-20T17:59:47.933Z,5.70
2018-03-20T18:02:14.804Z,5.70
2018-03-20T18:04:41.722Z,5.60
2018-03-20T18:07:08.575Z,5.50
2018-03-20T18:09:35.542Z,5.40
2018-03-20T18:12:02.414Z,5.30
2018-03-20T18:14:29.363Z,5.20
2018-03-20T18:16:56.304Z,5.20
2018-03-20T18:19:23.205Z,5.10
2018-03-20T18:21:50.117Z,5.00
2018-03-20T18:24:17.249Z,4.90
2018-03-20T18:26:44.521Z,4.70
2018-03-20T18:29:11.393Z,4.70
2018-03-20T18:31:38.277Z,4.70
2018-03-20T18:34:05.220Z,4.70
2018-03-20T18:36:32.185Z,4.60
2018-03-20T18:38:59.139Z,4.60
2018-03-20T18:41:26.088Z,4.50
2018-03-20T18:43:53.389Z,4.30
2018-03-20T18:46:20.326Z,4.30
2018-03-20T18:48:47.178Z,4.20
2018-03-20T18:51:14.152Z,4.10
2018-03-20T18:53:41.023Z,4.00
2018-03-20T18:56:07.933Z,3.80
2018-03-20T18:58:34.830Z,3.70
2018-03-20T19:01:01.729Z,3.60
2018-03-20T19:03:28.602Z,3.50
2018-03-20T19:05:55.909Z,3.40
2018-03-20T19:08:22.857Z,3.40
2018-03-20T19:10:49.704Z,3.30
2018-03-20T19:13:16.565Z,3.20
2018-03-20T19:15:43.537Z,3.30
2018-03-20T19:18:10.389Z,3.10
2018-03-20T19:20:37.286Z,3.00
2018-03-20T19:23:04.292Z,3.10
2018-03-20T19:25:31.139Z,3.10
2018-03-20T19:27:58.029Z,3.10
2018-03-20T19:30:24.977Z,3.20
2018-03-20T19:32:51.826Z,3.20
2018-03-20T19:35:18.698Z,3.00
2018-03-20T19:37:45.564Z,3.00
2018-03-20T19:40:12.594Z,2.90
2018-03-20T19:42:39.655Z,3.00
2018-03-20T19:45:06.913Z,2.90
2018-03-20T19:47:34.219Z,3.00
2018-03-20T19:50:01.092Z,3.00
2018-03-20T19:52:27.988Z,2.90
2018-03-20T19:54:55.288Z,3.00
2018-03-20T19:57:22.157Z,3.00
2018-03-20T19:59:49.029Z,3.10
2018-03-20T20:02:15.957Z,3.10
2018-03-20T20:04:42.801Z,3.10
2018-03-20T20:07:09.671Z,3.10
2018-03-20T20:09:36.529Z,3.00
2018-03-20T20:12:03.418Z,3.00
2018-03-20T20:14:30.357Z,3.00
2018-03-20T20:16:57.199Z,3.00
2018-03-20T20:19:24.057Z,2.90
2018-03-20T20:21:50.927Z,2.90
2018-03-20T20:24:17.780Z,2.90
2018-03-20T20:26:44.768Z,3.00
2018-03-20T20:29:12.024Z,2.90
2018-03-20T20:31:39.047Z,2.90
2018-03-20T20:34:05.929Z,2.90
2018-03-20T20:36:32.841Z,2.90
2018-03-20T20:39:00.124Z,2.80
2018-03-20T20:41:26.981Z,2.80
2018-03-20T20:43:53.862Z,2.80
2018-03-20T20:46:20.711Z,2.80
2018-03-20T20:48:47.593Z,2.70
2018-03-20T20:51:14.627Z,2.70
2018-03-20T20:53:41.487Z,2.70
2018-03-20T20:56:08.401Z,2.70
2018-03-20T20:58:35.658Z,2.70
2018-03-20T21:01:02.551Z,2.70
2018-03-20T21:03:29.561Z,2.70
2018-03-20T21:05:56.479Z,2.60
2018-03-20T21:08:23.348Z,2.60
2018-03-20T21:10:50.298Z,2.60
2018-03-20T21:13:17.253Z,2.50
2018-03-20T21:15:44.110Z,2.40
2018-03-20T21:18:11.074Z,2.30
2018-03-20T21:20:37.918Z,2.30
2018-03-20T21:23:04.918Z,2.30
2018-03-20T21:25:31.981Z,2.40
2018-03-20T21:27:58.915Z,2.40
2018-03-20T21:30:25.715Z,2.40
2018-03-20T21:32:52.624Z,2.50
2018-03-20T21:35:19.461Z,2.50
2018-03-20T21:37:46.313Z,2.50
2018-03-20T21:40:13.180Z,2.50
2018-03-20T21:42:40.035Z,2.50
2018-03-20T21:45:06.929Z,2.60
2018-03-20T21:47:33.794Z,2.60
2018-03-20T21:50:00.669Z,2.70
2018-03-20T21:52:27.550Z,2.80
2018-03-20T21:54:54.806Z,2.80
2018-03-20T21:57:22.094Z,2.90
2018-03-20T21:59:49.346Z,2.90
2018-03-20T22:02:16.649Z,3.00
2018-03-20T22:04:43.545Z,3.00
2018-03-20T22:07:10.435Z,2.90
2018-03-20T22:09:37.718Z,2.90
2018-03-20T22:12:04.566Z,2.90
2018-03-20T22:14:31.509Z,2.80
2018-03-20T22:16:58.756Z,2.80
2018-03-20T22:19:25.644Z,2.80
2018-03-20T22:21:52.971Z,2.60
2018-03-20T22:24:19.871Z,2.60
2018-03-20T22:26:47.193Z,2.50
2018-03-20T22:29:14.082Z,2.50
2018-03-20T22:31:41.384Z,2.20
2018-03-20T22:34:08.297Z,2.20
2018-03-20T22:36:35.142Z,2.20
2018-03-20T22:39:02.058Z,2.20
2018-03-20T22:41:28.923Z,2.30
2018-03-20T22:43:55.805Z,2.20
2018-03-20T22:46:22.756Z,2.10
2018-03-20T22:48:49.700Z,2.10
2018-03-20T22:51:16.648Z,2.10
2018-03-20T22:53:43.535Z,2.20
2018-03-20T22:56:10.390Z,2.20
2018-03-20T22:58:37.351Z,2.20
2018-03-20T23:01:04.213Z,2.30
2018-03-20T23:03:31.058Z,2.30
2018-03-20T23:05:58.664Z,2.20
2018-03-20T23:08:25.502Z,2.30
2018-03-20T23:10:52.452Z,2.40
2018-03-20T23:13:19.912Z,2.40
2018-03-20T23:15:46.767Z,2.40
2018-03-20T23:18:13.717Z,2.50
2018-03-20T23:20:40.581Z,2.50
2018-03-20T23:23:07.509Z,2.40
2018-03-20T23:25:34.760Z,2.60
2018-03-20T23:28:02.021Z,2.60
2018-03-20T23:30:28.881Z,2.50
2018-03-20T23:32:56.208Z,2.60
2018-03-20T23:35:23.159Z,2.60
2018-03-20T23:37:50.030Z,2.70
2018-03-20T23:40:16.973Z,2.60
2018-03-20T23:42:43.822Z,2.40
2018-03-20T23:45:10.790Z,2.40
2018-03-20T23:47:37.676Z,2.40
2018-03-20T23:50:04.795Z,2.50
2018-03-20T23:52:31.657Z,2.50
2018-03-20T23:54:58.597Z,2.50
2018-03-20T23:57:25.464Z,2.40
2018-03-20T23:59:52.369Z,2.40
